Data for 09/07/2007

Time Sea-Level Adjusted Pressure Absolute Pressure Temperature Relative Humidity Dew Point   
(mb) (inHg) (mb) (inHg) (C) (F) (%) (C) (F)
00:05 1021 30.15 850 25.1 14.2 57.5 53 4.7 40.5
00:10 1021 30.15 850 25.1 14.1 57.5 51 4.3 39.8
00:15 1021 30.15 850 25.1 14.2 57.6 52 4.6 40.4
00:20 1021 30.15 850 25.1 14 57.2 53 4.6 40.2
00:25 1021 30.15 850 25.1 14 57.1 51 4.1 39.5
00:30 1021 30.15 850 25.1 14.3 57.7 49 3.8 38.8
00:35 1021 30.15 850 25.1 14.5 58.2 49 4 39.2
00:40 1021 30.15 850 25.1 14.6 58.3 47 3.5 38.3
00:45 1021 30.15 850 25.1 14.8 58.7 46 3.5 38.4
00:50 1021 30.15 850 25.1 14.9 58.8 46 3.5 38.4
00:55 1021 30.15 850 25.1 15 58.9 46 3.4 38.2
01:00 1021 30.15 850 25.1 14.9 58.8 49 4.2 39.6
01:05 1021 30.15 850 25.1 15 58.9 45 3.3 38
01:10 1021 30.15 851 25.13 14.8 58.7 47 3.7 38.6
01:15 1021 30.15 851 25.13 14.6 58.3 47 3.6 38.4
01:20 1021 30.15 851 25.13 14.3 57.8 48 3.7 38.6
01:25 1021 30.15 851 25.13 14.1 57.4 49 3.8 38.8
01:30 1021 30.15 851 25.13 14 57.1 50 3.7 38.7
01:35 1021 30.15 851 25.13 13.9 56.9 49 3.4 38.1
01:40 1022 30.18 851 25.13 13.9 57 49 3.5 38.3
01:45 1022 30.18 851 25.13 13.9 57 52 4.1 39.5
01:50 1022 30.18 851 25.13 13 55.5 58 5.1 41.1
01:55 1022 30.18 851 25.13 12.2 53.9 59 4.4 39.9
02:00 1022 30.18 851 25.13 12.2 53.9 59 4.5 40.1
02:05 1022 30.18 851 25.13 12.2 54 58 4.3 39.7
02:10 1022 30.18 851 25.13 12.4 54.3 58 4.4 40
02:15 1022 30.18 851 25.13 12.2 54 59 4.5 40.1
02:20 1022 30.18 851 25.13 11.9 53.4 61 4.7 40.5
02:25 1022 30.18 851 25.13 11.6 52.8 61 4.5 40
02:30 1022 30.18 851 25.13 11.4 52.5 62 4.5 40.2
02:35 1022 30.18 851 25.13 11.2 52.1 64 4.6 40.3
02:40 1022 30.18 851 25.13 10.8 51.4 66 4.8 40.6
02:45 1022 30.18 851 25.13 10.3 50.6 68 4.8 40.6
02:50 1022 30.18 851 25.13 10.1 50.1 69 4.8 40.6
02:55 1022 30.18 851 25.13 9.9 49.9 69 4.5 40
03:00 1022 30.18 851 25.13 10 49.9 69 4.6 40.2
03:05 1022 30.18 851 25.13 9.8 49.6 69 4.5 40.1
03:10 1022 30.18 851 25.13 9.9 49.8 68 4.2 39.6
03:15 1022 30.18 851 25.13 10.1 50.1 67 4.4 39.8
03:20 1022 30.18 851 25.13 10.2 50.3 63 3.4 38.2
03:25 1022 30.18 851 25.13 10.3 50.6 63 3.6 38.5
03:30 1022 30.18 851 25.13 10.2 50.3 63 3.6 38.5
03:35 1022 30.18 851 25.13 10.2 50.4 63 3.4 38.2
03:40 1022 30.18 851 25.13 10.4 50.7 62 3.4 38.1
03:45 1022 30.18 851 25.13 10.3 50.5 63 3.5 38.4
03:50 1022 30.18 851 25.13 9.9 49.8 63 3.3 38
03:55 1022 30.18 851 25.13 9.8 49.6 64 3.4 38.1
04:00 1022 30.18 851 25.13 9.5 49.1 66 3.4 38.2
04:05 1022 30.18 851 25.13 9.4 48.8 66 3.4 38.2
04:10 1022 30.18 851 25.13 9.3 48.8 66 3.4 38.1
04:15 1022 30.18 851 25.13 9.4 48.9 66 3.3 38
04:20 1022 30.18 851 25.13 9.4 48.8 66 3.4 38.2
04:25 1022 30.18 851 25.13 9.1 48.3 67 3.4 38
04:30 1022 30.18 851 25.13 9 48.3 68 3.6 38.4
04:35 1021 30.15 851 25.13 9.3 48.7 68 3.6 38.5
04:40 1021 30.15 851 25.13 9.6 49.2 67 3.8 38.9
04:45 1021 30.15 851 25.13 9.4 48.9 69 4 39.2
04:50 1021 30.15 851 25.13 9.3 48.8 70 4.1 39.3
04:55 1021 30.15 851 25.13 9.4 48.9 70 4.2 39.6
05:00 1021 30.15 851 25.13 9.5 49.1 70 4.3 39.7
05:05 1021 30.15 851 25.13 9.5 49.1 69 4.2 39.6
05:10 1021 30.15 851 25.13 9.5 49 70 4.3 39.7
05:15 1021 30.15 851 25.13 9.4 48.8 70 4.2 39.6
05:20 1021 30.15 851 25.13 9.2 48.5 71 4.3 39.7
05:25 1021 30.15 851 25.13 9.1 48.3 72 4.2 39.6
05:30 1021 30.15 851 25.13 9.1 48.3 72 4.3 39.8
05:35 1021 30.15 851 25.13 9 48.1 73 4.3 39.8
05:40 1021 30.15 850 25.1 9 48.2 72 4.1 39.5
05:45 1021 30.15 850 25.1 9 48.2 72 4.3 39.7
05:50 1021 30.15 850 25.1 8.8 47.8 73 4.3 39.7
05:55 1021 30.15 850 25.1 8.7 47.6 73 4.1 39.3
06:00 1021 30.15 850 25.1 8.6 47.4 74 4.2 39.5
06:05 1021 30.15 850 25.1 8.5 47.2 74 4.2 39.6
06:10 1021 30.15 850 25.1 8.6 47.4 74 4.3 39.7
06:15 1021 30.15 850 25.1 8.5 47.3 73 4 39.3
06:20 1021 30.15 850 25.1 8.5 47.2 74 4.1 39.3
06:25 1021 30.15 850 25.1 8.5 47.3 72 3.8 38.9
06:30 1021 30.15 850 25.1 8.5 47.3 72 3.8 38.8
06:35 1021 30.15 850 25.1 8.5 47.3 73 4 39.2
06:40 1021 30.15 850 25.1 8.2 46.8 74 4 39.2
06:45 1021 30.15 850 25.1 8.2 46.7 74 3.9 39
06:50 1021 30.15 850 25.1 8.3 46.9 74 3.9 39
06:55 1021 30.15 850 25.1 8.4 47.1 73 3.8 38.9
07:00 1021 30.15 850 25.1 8.5 47.3 72 3.8 38.9
07:05 1021 30.15 850 25.1 8.5 47.3 72 3.7 38.6
07:10 1021 30.15 850 25.1 8.4 47.1 72 3.7 38.7
07:15 1021 30.15 850 25.1 8.4 47.2 72 3.7 38.6
07:20 1021 30.15 850 25.1 8.4 47.2 71 3.6 38.4
07:25 1021 30.15 850 25.1 8.5 47.2 70 3.4 38.1
07:30 1021 30.15 850 25.1 8.5 47.4 70 3.5 38.3
07:35 1021 30.15 850 25.1 8.6 47.4 70 3.5 38.2
07:40 1021 30.15 850 25.1 8.4 47.1 70 3.2 37.8
07:45 1021 30.15 850 25.1 8.4 47.2 69 3.1 37.5
07:50 1021 30.15 850 25.1 8.6 47.6 69 3.3 38
07:55 1021 30.15 850 25.1 8.7 47.7 69 3.3 38
08:00 1021 30.15 850 25.1 8.9 48.1 68 3.3 38
08:05 1021 30.15 850 25.1 9.1 48.3 68 3.5 38.4
08:10 1021 30.15 850 25.1 9.1 48.4 68 3.5 38.3
08:15 1021 30.15 850 25.1 9.4 49 66 3.5 38.3
08:20 1021 30.15 850 25.1 9.9 49.8 65 3.5 38.4
08:25 1021 30.15 850 25.1 10.4 50.7 63 3.7 38.7
08:30 1021 30.15 850 25.1 10.8 51.4 63 4.1 39.4
08:35 1021 30.15 850 25.1 11.5 52.7 60 4 39.3
08:40 1021 30.15 850 25.1 11.8 53.2 58 3.9 38.9
08:45 1021 30.15 850 25.1 12.1 53.8 57 3.9 39
08:50 1021 30.15 850 25.1 12.6 54.7 55 3.8 38.8
08:55 1021 30.15 850 25.1 13 55.3 54 4 39.3
09:00 1021 30.15 850 25.1 13 55.5 54 3.9 39
09:05 1021 30.15 850 25.1 13 55.4 55 4.2 39.6
09:10 1021 30.15 850 25.1 13 55.5 53 3.7 38.7
09:15 1021 30.15 850 25.1 13.5 56.3 53 4.1 39.3
09:20 1021 30.15 850 25.1 13.9 56.9 51 3.9 39
09:25 1021 30.15 850 25.1 14.3 57.8 50 4.2 39.6
09:30 1021 30.15 850 25.1 14.6 58.3 49 4.2 39.5
09:35 1021 30.15 850 25.1 14.9 58.9 49 4.3 39.8
09:40 1021 30.15 850 25.1 15.2 59.3 48 4.4 39.8
09:45 1021 30.15 850 25.1 15.9 60.6 46 4.3 39.8
09:50 1021 30.15 850 25.1 15.9 60.7 47 4.7 40.5
09:55 1021 30.15 850 25.1 16 60.8 46 4.4 39.9
10:00 1021 30.15 850 25.1 15.9 60.6 46 4.3 39.7
10:05 1021 30.15 850 25.1 16.2 61.2 44 4.1 39.3
10:10 1021 30.15 850 25.1 16.8 62.2 43 4.2 39.6
10:15 1021 30.15 850 25.1 16.7 62 45 4.7 40.4
10:20 1020 30.12 850 25.1 16.4 61.6 45 4.6 40.3
10:25 1020 30.12 850 25.1 16.6 61.8 43 4.2 39.6
10:30 1020 30.12 850 25.1 16.8 62.2 45 4.8 40.7
10:35 1020 30.12 849 25.07 15.8 60.4 48 4.8 40.7
10:40 1020 30.12 849 25.07 15.6 60.1 46 4 39.2
10:45 1020 30.12 849 25.07 15.7 60.2 44 3.7 38.6
10:50 1020 30.12 849 25.07 15.8 60.5 44 3.7 38.6
10:55 1020 30.12 849 25.07 15.9 60.6 43 3.6 38.4
11:00 1020 30.12 849 25.07 17 62.5 39 3.1 37.6
11:05 1020 30.12 849 25.07 17.9 64.3 38 3.5 38.3
11:10 1020 30.12 849 25.07 18.5 65.4 37 3.7 38.7
11:15 1020 30.12 849 25.07 18.6 65.5 37 3.7 38.7
11:20 1020 30.12 849 25.07 18.5 65.3 38 4.2 39.5
11:25 1020 30.12 849 25.07 18.5 65.4 38 4 39.2
11:30 1019 30.09 849 25.07 18.7 65.7 37 4 39.2
11:35 1019 30.09 849 25.07 21.2 70.1 26 1.2 34.2
11:40 1019 30.09 849 25.07 24.6 76.3 21 0.9 33.6
11:45 1019 30.09 848 25.04 22.9 73.3 34 6.5 43.8
11:50 1019 30.09 848 25.04 21.4 70.4 30 3.1 37.7
11:55 1019 30.09 848 25.04 22.1 71.9 97 21.7 71.1
12:00 1019 30.09 848 25.04 -6999 -12566.2 -6999 NAN NAN
12:05 1019 30.09 848 25.04 46.9 116.4 33 27 80.6
12:10 1019 30.09 848 25.04 20.4 68.8 36 4.9 40.8
12:15 1019 30.09 848 25.04 25.7 78.2 25 4.3 39.8
12:20 1019 30.09 848 25.04 25.4 77.7 27 5.3 41.6
12:25 1018 30.06 848 25.04 23.2 73.7 29 4.6 40.3
12:30 1018 30.06 848 25.04 21.1 69.9 33 4.2 39.5
12:35 1018 30.06 847 25.01 21.4 70.6 31 3.6 38.5
12:40 1018 30.06 847 25.01 21.7 71.1 31 4 39.2
12:45 1018 30.06 847 25.01 21.3 70.3 32 4.1 39.4
12:50 1018 30.06 847 25.01 21.8 71.3 32 4.4 39.9
12:55 1018 30.06 847 25.01 22.4 72.3 29 3.9 38.9
13:00 1018 30.06 847 25.01 22.9 73.3 30 4.5 40
13:05 1018 30.06 847 25.01 22.3 72.2 32 4.9 40.9
13:10 1017 30.03 847 25.01 21.4 70.5 31 3.7 38.6
13:15 1017 30.03 847 25.01 21.8 71.3 31 4 39.2
13:20 1017 30.03 847 25.01 22.4 72.4 31 4.8 40.6
13:25 1017 30.03 846 24.98 22.8 73.1 30 4.5 40.1
13:30 1017 30.03 846 24.98 23.3 73.9 30 5 41
13:35 1017 30.03 846 24.98 23 73.4 29 4.5 40
13:40 1017 30.03 846 24.98 22.6 72.6 31 5 41
13:45 1017 30.03 846 24.98 22.5 72.6 32 5.3 41.5
13:50 1017 30.03 846 24.98 22.3 72.1 33 5.6 42.1
13:55 1017 30.03 846 24.98 23.3 74 32 5.8 42.4
14:00 1017 30.03 846 24.98 23 73.4 30 4.9 40.9
14:05 1017 30.03 846 24.98 23.6 74.5 28 4.3 39.8
14:10 1017 30.03 846 24.98 23.8 74.8 28 4.6 40.3
14:15 1017 30.03 846 24.98 23 73.4 30 4.5 40.1
14:20 1017 30.03 846 24.98 23.6 74.6 27 4 39.2
14:25 1016 30 846 24.98 24 75.1 29 5.1 41.2
14:30 1016 30 845 24.95 23.3 73.9 28 4.1 39.4
14:35 1016 30 845 24.95 22.8 73 29 4 39.2
14:40 1016 30 845 24.95 23 73.4 29 4.3 39.7
14:45 1016 30 845 24.95 22.6 72.6 27 2.9 37.2
14:50 1016 30 845 24.95 23.8 74.9 24 2.3 36.2
14:55 1016 30 845 24.95 24.7 76.5 23 2.2 36
15:00 1016 30 845 24.95 25.1 77.2 24 3.6 38.4
15:05 1016 30 845 24.95 24.2 75.5 23 1.7 35
15:10 1016 30 845 24.95 23.9 75.1 22 0.9 33.6
15:15 1016 30 845 24.95 24.3 75.8 18 -0.9 30.3
15:20 1016 30 845 24.95 24 75.2 18 -1.3 29.6
15:25 1015 29.97 845 24.95 24.3 75.7 18 -1 30.1
15:30 1015 29.97 845 24.95 24.3 75.7 19 -0.6 30.8
15:35 1015 29.97 845 24.95 24.2 75.6 17 -2.4 27.7
15:40 1015 29.97 845 24.95 24.6 76.3 16 -2.6 27.4
15:45 1015 29.97 845 24.95 25.2 77.4 15 -2.8 27
15:55 1006 29.71 835 24.66 25 77.1 14 -3.6 25.4
16:00 1015 29.97 844 24.92 24.9 76.8 14 -4.5 24
16:05 1015 29.97 844 24.92 24.9 76.8 14 -3.9 25
16:10 1015 29.97 844 24.92 25.3 77.5 14 -3.6 25.6
16:15 1015 29.97 844 24.92 25.1 77.1 15 -3.4 25.8
16:20 1015 29.97 844 24.92 24.9 76.7 14 -4 24.8
16:25 1015 29.97 844 24.92 24.7 76.4 18 -0.9 30.4
16:30 1015 29.97 844 24.92 24.5 76.1 20 0.3 32.5
16:35 1015 29.97 844 24.92 24.6 76.3 22 1.7 35
16:40 1015 29.97 844 24.92 24.2 75.5 23 1.7 35.1
16:45 1015 29.97 844 24.92 24.7 76.4 21 1.1 34
16:50 1015 29.97 844 24.92 25.2 77.3 20 1.2 34.1
16:55 1015 29.97 844 24.92 25.4 77.7 20 1.1 34
17:00 1015 29.97 844 24.92 25.2 77.4 19 -0 31.9
17:05 1015 29.97 844 24.92 25.2 77.3 15 -2.8 26.9
17:10 1015 29.97 844 24.92 25.4 77.7 15 -3.2 26.2
17:15 1015 29.97 844 24.92 25.8 78.5 13 -4.1 24.6
17:20 1015 29.97 844 24.92 25.9 78.6 13 -4.8 23.4
17:25 1015 29.97 844 24.92 25.1 77.2 13 -4.9 23.2
17:30 1015 29.97 844 24.92 25 77 14 -4.5 23.9
17:35 1015 29.97 844 24.92 25 77 13 -5.5 22.1
17:40 1015 29.97 844 24.92 25.3 77.5 11 -7 19.3
17:45 1015 29.97 844 24.92 25.4 77.7 11 -6.5 20.3
17:50 1015 29.97 844 24.92 25.1 77.2 11 -7.3 18.9
17:55 1015 29.97 844 24.92 25.1 77.2 12 -6.3 20.7
18:00 1015 29.97 844 24.92 25.1 77.2 12 -5.7 21.7
18:05 1015 29.97 844 24.92 25.1 77.2 14 -4.3 24.3
18:10 1015 29.97 844 24.92 24.9 76.9 12 -6.5 20.3
18:15 1015 29.97 844 24.92 24.5 76.2 14 -4.7 23.5
18:20 1015 29.97 844 24.92 24.3 75.7 14 -5 23
18:25 1015 29.97 844 24.92 24 75.3 13 -5.8 21.6
18:30 1015 29.97 844 24.92 23.8 74.8 13 -6.1 21
18:35 1015 29.97 844 24.92 23.6 74.5 14 -5.7 21.8
18:40 1015 29.97 844 24.92 23.4 74.1 14 -5.8 21.6
18:45 1015 29.97 844 24.92 23.3 73.9 13 -6.1 21.1
18:50 1015 29.97 844 24.92 23.2 73.7 14 -5.9 21.4
18:55 1015 29.97 844 24.92 23 73.3 14 -5.6 22
19:00 1015 29.97 844 24.92 22.6 72.6 15 -5.1 22.9
19:05 1015 29.97 844 24.92 22.2 72 15 -5.5 22
19:10 1015 29.97 844 24.92 22 71.6 16 -4.6 23.8
19:15 1015 29.97 844 24.92 21.9 71.3 16 -4.5 23.8
19:20 1015 29.97 844 24.92 21.5 70.8 18 -3.7 25.3
19:25 1015 29.97 845 24.95 21.2 70.2 19 -3.1 26.3
19:30 1015 29.97 845 24.95 21 69.8 21 -2.3 27.9
19:35 1015 29.97 845 24.95 20.8 69.4 23 -0.9 30.4
19:40 1015 29.97 845 24.95 20.5 69 24 -0.7 30.8
19:45 1015 29.97 845 24.95 20.3 68.6 26 0.5 33
19:50 1015 29.97 845 24.95 20.2 68.3 26 0.5 32.9
19:55 1015 29.97 845 24.95 20 68.1 27 0.6 33.1
20:00 1015 29.97 845 24.95 19.9 67.8 27 0.6 33.1
20:05 1016 30 845 24.95 19.7 67.5 28 0.7 33.2
20:10 1016 30 845 24.95 19.5 67.1 28 0.5 32.9
20:15 1016 30 845 24.95 19.3 66.7 27 0.2 32.3
20:20 1016 30 845 24.95 19.2 66.6 27 -0.1 31.8
20:25 1016 30 845 24.95 19.2 66.5 27 0.1 32.1
20:30 1016 30 845 24.95 19.2 66.5 27 -0.2 31.6
20:35 1016 30 845 24.95 19 66.2 27 -0.2 31.6
20:40 1016 30 845 24.95 18.9 66 28 -0 32
20:45 1016 30 846 24.98 18.7 65.7 28 0.2 32.3
20:50 1017 30.03 846 24.98 18.6 65.4 29 0.3 32.6
20:55 1017 30.03 846 24.98 17.6 63.7 34 1.7 35
21:00 1017 30.03 846 24.98 16.7 62 34 0.8 33.4
21:05 1017 30.03 846 24.98 16.8 62.2 31 -0.4 31.2
21:10 1017 30.03 847 25.01 17.4 63.3 31 0.3 32.5
21:15 1018 30.06 847 25.01 17.7 63.9 28 -0.9 30.3
21:20 1018 30.06 847 25.01 17.7 63.9 29 -0.6 30.9
21:25 1018 30.06 847 25.01 17.6 63.7 29 -0.5 31.1
21:30 1018 30.06 847 25.01 17.5 63.5 30 -0.3 31.4
21:35 1018 30.06 847 25.01 17.5 63.6 30 -0.3 31.5
21:40 1018 30.06 847 25.01 17.6 63.6 30 -0.2 31.7
21:45 1018 30.06 847 25.01 17.5 63.5 31 0.2 32.4
21:50 1018 30.06 847 25.01 17.4 63.4 31 0.2 32.4
21:55 1018 30.06 847 25.01 17.3 63.1 32 0.5 32.9
22:00 1018 30.06 847 25.01 17.1 62.8 32 0.5 32.9
22:05 1018 30.06 848 25.04 16.9 62.4 33 0.7 33.2
22:10 1018 30.06 848 25.04 16.8 62.2 33 0.6 33
22:15 1019 30.09 848 25.04 16.6 61.9 34 0.7 33.3
22:20 1019 30.09 848 25.04 16.5 61.7 35 0.9 33.6
22:25 1019 30.09 848 25.04 16.3 61.4 35 0.9 33.7
22:30 1019 30.09 848 25.04 16.2 61.2 36 1 33.9
22:35 1019 30.09 848 25.04 16.1 61 36 1.2 34.2
22:40 1019 30.09 848 25.04 16.1 60.9 36 1.1 34
22:45 1019 30.09 848 25.04 16 60.8 37 1.3 34.4
22:50 1019 30.09 848 25.04 15.9 60.5 42 3.1 37.6
22:55 1019 30.09 849 25.07 15.6 60.1 39 1.8 35.2
23:00 1019 30.09 849 25.07 15.5 59.8 41 2.3 36.1
23:05 1020 30.12 849 25.07 15.1 59.1 43 2.7 36.8
23:10 1020 30.12 849 25.07 14.8 58.6 44 2.6 36.7
23:15 1020 30.12 849 25.07 14.7 58.5 45 2.9 37.1
23:20 1020 30.12 849 25.07 14.8 58.6 44 2.8 37
23:25 1020 30.12 849 25.07 14.8 58.6 45 3.1 37.5
23:30 1020 30.12 849 25.07 14.7 58.5 45 3.1 37.7
23:35 1020 30.12 849 25.07 14.6 58.4 47 3.4 38.1
23:40 1020 30.12 849 25.07 14.5 58.1 48 3.7 38.6
23:45 1020 30.12 850 25.1 14.4 57.9 49 3.8 38.9
23:50 1020 30.12 850 25.1 14.2 57.6 49 3.8 38.9
23:55 1021 30.15 850 25.1 14 57.2 50 3.9 39
24:00 1021 30.15 850 25.1 13.7 56.7 53 4.4 39.9